createdAt,value
2023-01-08T22:06:35.607Z,100821.59
2023-01-08T22:09:02.326Z,100824.39
2023-01-08T22:11:29.084Z,100824.89
2023-01-08T22:13:57.465Z,100817.36
2023-01-08T22:16:24.197Z,100814.58
2023-01-08T22:18:50.876Z,100809.49
2023-01-08T22:21:18.249Z,100807.76
2023-01-08T22:23:44.933Z,100806.99
2023-01-08T22:26:12.359Z,100809.16
2023-01-08T22:28:39.541Z,100805.33
2023-01-08T22:31:10.323Z,100807.33
2023-01-08T22:33:37.192Z,100802.40
2023-01-08T22:36:04.885Z,100802.48
2023-01-08T22:38:31.699Z,100805.66
2023-01-08T22:40:58.565Z,100803.64
2023-01-08T22:43:25.561Z,100806.23
2023-01-08T22:45:53.323Z,100801.19
2023-01-08T22:48:20.303Z,100807.48
2023-01-08T22:50:47.274Z,100807.72
2023-01-08T22:53:14.159Z,100809.80
2023-01-08T22:55:46.392Z,100807.60
2023-01-08T22:58:14.455Z,100803.70
2023-01-08T23:00:41.205Z,100799.73
2023-01-08T23:03:08.026Z,100794.95
2023-01-08T23:05:34.955Z,100792.45
2023-01-08T23:08:02.068Z,100790.52
2023-01-08T23:10:28.823Z,100785.22
2023-01-08T23:12:55.519Z,100784.61
2023-01-08T23:15:23.592Z,100784.33
2023-01-08T23:17:52.518Z,100780.27
2023-01-08T23:20:20.691Z,100774.13
2023-01-08T23:22:47.917Z,100770.54
2023-01-08T23:25:14.900Z,100766.13
2023-01-08T23:27:41.752Z,100763.59
2023-01-08T23:30:09.207Z,100761.65
2023-01-08T23:32:36.000Z,100759.14
2023-01-08T23:35:02.812Z,100757.25
2023-01-08T23:37:29.621Z,100752.89
2023-01-08T23:39:56.310Z,100753.46
2023-01-08T23:42:23.124Z,100751.00
2023-01-08T23:44:50.024Z,100748.77
2023-01-08T23:47:16.721Z,100747.61
2023-01-08T23:49:43.566Z,100745.65
2023-01-08T23:52:10.253Z,100738.77
2023-01-08T23:54:37.008Z,100734.87
2023-01-08T23:57:06.097Z,100732.42
2023-01-08T23:59:32.859Z,100738.31
